sensor_id;sensor_type;location;lat;lon;timestamp;pressure;altitude;pressure_sealevel;temperature
53667;BMP280;39568;51.026;5.468;2022-07-18T00:01:07;101680.34;;;17.13
53667;BMP280;39568;51.026;5.468;2022-07-18T00:03:35;101684.84;;;17.05
53667;BMP280;39568;51.026;5.468;2022-07-18T00:06:03;101681.28;;;16.97
53667;BMP280;39568;51.026;5.468;2022-07-18T00:08:30;101686.66;;;16.97
53667;BMP280;39568;51.026;5.468;2022-07-18T00:10:56;101680.09;;;16.92
53667;BMP280;39568;51.026;5.468;2022-07-18T00:13:23;101686.03;;;16.85
53667;BMP280;39568;51.026;5.468;2022-07-18T00:15:50;101688.03;;;16.79
53667;BMP280;39568;51.026;5.468;2022-07-18T00:18:17;101676.97;;;16.64
53667;BMP280;39568;51.026;5.468;2022-07-18T00:20:44;101683.66;;;16.57
53667;BMP280;39568;51.026;5.468;2022-07-18T00:23:12;101683.94;;;16.54
53667;BMP280;39568;51.026;5.468;2022-07-18T00:25:42;101686.19;;;16.50
53667;BMP280;39568;51.026;5.468;2022-07-18T00:28:10;101682.78;;;16.44
53667;BMP280;39568;51.026;5.468;2022-07-18T00:30:41;101679.66;;;16.40
53667;BMP280;39568;51.026;5.468;2022-07-18T00:33:08;101673.59;;;16.39
53667;BMP280;39568;51.026;5.468;2022-07-18T00:35:35;101671.59;;;16.40
53667;BMP280;39568;51.026;5.468;2022-07-18T00:38:05;101671.66;;;16.34
53667;BMP280;39568;51.026;5.468;2022-07-18T00:40:33;101674.59;;;16.36
53667;BMP280;39568;51.026;5.468;2022-07-18T00:43:05;101661.41;;;16.33
53667;BMP280;39568;51.026;5.468;2022-07-18T00:45:32;101670.31;;;16.22
53667;BMP280;39568;51.026;5.468;2022-07-18T00:47:58;101674.78;;;16.14
53667;BMP280;39568;51.026;5.468;2022-07-18T00:50:30;101674.56;;;16.12
53667;BMP280;39568;51.026;5.468;2022-07-18T00:52:58;101666.75;;;16.08
53667;BMP280;39568;51.026;5.468;2022-07-18T00:55:25;101664.63;;;16.01
53667;BMP280;39568;51.026;5.468;2022-07-18T00:57:54;101656.41;;;15.94
53667;BMP280;39568;51.026;5.468;2022-07-18T01:00:21;101657.22;;;15.83
53667;BMP280;39568;51.026;5.468;2022-07-18T01:03:06;101657.28;;;15.72
53667;BMP280;39568;51.026;5.468;2022-07-18T01:05:43;101649.53;;;15.63
53667;BMP280;39568;51.026;5.468;2022-07-18T01:08:10;101646.19;;;15.57
53667;BMP280;39568;51.026;5.468;2022-07-18T01:10:37;101642.78;;;15.51
53667;BMP280;39568;51.026;5.468;2022-07-18T01:13:05;101638.88;;;15.46
53667;BMP280;39568;51.026;5.468;2022-07-18T01:15:32;101647.22;;;15.43
53667;BMP280;39568;51.026;5.468;2022-07-18T01:18:02;101638.69;;;15.44
53667;BMP280;39568;51.026;5.468;2022-07-18T01:20:31;101638.19;;;15.46
53667;BMP280;39568;51.026;5.468;2022-07-18T01:22:59;101644.50;;;15.48
53667;BMP280;39568;51.026;5.468;2022-07-18T01:25:26;101640.59;;;15.50
53667;BMP280;39568;51.026;5.468;2022-07-18T01:27:53;101641.09;;;15.48
53667;BMP280;39568;51.026;5.468;2022-07-18T01:30:24;101642.56;;;15.49
53667;BMP280;39568;51.026;5.468;2022-07-18T01:32:55;101633.06;;;15.42
53667;BMP280;39568;51.026;5.468;2022-07-18T01:35:22;101635.28;;;15.38
53667;BMP280;39568;51.026;5.468;2022-07-18T01:37:57;101631.19;;;15.32
53667;BMP280;39568;51.026;5.468;2022-07-18T01:40:25;101631.97;;;15.21
53667;BMP280;39568;51.026;5.468;2022-07-18T01:42:52;101625.19;;;15.09
53667;BMP280;39568;51.026;5.468;2022-07-18T01:45:19;101631.03;;;15.08
53667;BMP280;39568;51.026;5.468;2022-07-18T01:47:46;101625.19;;;15.09
53667;BMP280;39568;51.026;5.468;2022-07-18T01:50:14;101625.44;;;15.11
53667;BMP280;39568;51.026;5.468;2022-07-18T01:52:42;101623.25;;;15.10
53667;BMP280;39568;51.026;5.468;2022-07-18T01:55:10;101625.44;;;15.11
53667;BMP280;39568;51.026;5.468;2022-07-18T01:57:37;101623.00;;;15.08
53667;BMP280;39568;51.026;5.468;2022-07-18T02:00:07;101624.47;;;15.09
53667;BMP280;39568;51.026;5.468;2022-07-18T02:02:34;101631.06;;;15.02
53667;BMP280;39568;51.026;5.468;2022-07-18T02:05:00;101624.06;;;14.94
53667;BMP280;39568;51.026;5.468;2022-07-18T02:07:30;101619.19;;;14.87
53667;BMP280;39568;51.026;5.468;2022-07-18T02:09:58;101621.16;;;14.81
53667;BMP280;39568;51.026;5.468;2022-07-18T02:12:26;101619.72;;;14.74
53667;BMP280;39568;51.026;5.468;2022-07-18T02:15:04;101603.91;;;14.70
53667;BMP280;39568;51.026;5.468;2022-07-18T02:17:33;101611.72;;;14.63
53667;BMP280;39568;51.026;5.468;2022-07-18T02:20:01;101612.94;;;14.56
53667;BMP280;39568;51.026;5.468;2022-07-18T02:22:27;101602.47;;;14.53
53667;BMP280;39568;51.026;5.468;2022-07-18T02:24:54;101602.97;;;14.51
53667;BMP280;39568;51.026;5.468;2022-07-18T02:27:21;101604.94;;;14.51
53667;BMP280;39568;51.026;5.468;2022-07-18T02:29:49;101604.19;;;14.50
53667;BMP280;39568;51.026;5.468;2022-07-18T02:32:17;101611.22;;;14.64
53667;BMP280;39568;51.026;5.468;2022-07-18T02:34:44;101614.91;;;14.61
53667;BMP280;39568;51.026;5.468;2022-07-18T02:37:15;101615.59;;;14.62
53667;BMP280;39568;51.026;5.468;2022-07-18T02:39:42;101608.09;;;14.55
53667;BMP280;39568;51.026;5.468;2022-07-18T02:42:09;101610.28;;;14.51
53667;BMP280;39568;51.026;5.468;2022-07-18T02:44:36;101605.91;;;14.53
53667;BMP280;39568;51.026;5.468;2022-07-18T02:47:04;101607.59;;;14.45
53667;BMP280;39568;51.026;5.468;2022-07-18T02:49:31;101599.09;;;14.41
53667;BMP280;39568;51.026;5.468;2022-07-18T02:51:59;101603.50;;;14.28
53667;BMP280;39568;51.026;5.468;2022-07-18T02:54:26;101601.09;;;14.19
53667;BMP280;39568;51.026;5.468;2022-07-18T02:56:54;101599.63;;;14.12
53667;BMP280;39568;51.026;5.468;2022-07-18T02:59:25;101605.22;;;14.08
53667;BMP280;39568;51.026;5.468;2022-07-18T03:01:52;101599.13;;;14.08
53667;BMP280;39568;51.026;5.468;2022-07-18T03:04:25;101590.63;;;14.04
53667;BMP280;39568;51.026;5.468;2022-07-18T03:07:04;101588.41;;;14.02
53667;BMP280;39568;51.026;5.468;2022-07-18T03:09:32;101597.19;;;14.03
53667;BMP280;39568;51.026;5.468;2022-07-18T03:11:59;101589.41;;;14.05
53667;BMP280;39568;51.026;5.468;2022-07-18T03:14:25;101590.34;;;14.02
53667;BMP280;39568;51.026;5.468;2022-07-18T03:16:54;101587.22;;;13.98
53667;BMP280;39568;51.026;5.468;2022-07-18T03:19:23;101589.41;;;13.99
53667;BMP280;39568;51.026;5.468;2022-07-18T03:21:50;101589.66;;;13.96
53667;BMP280;39568;51.026;5.468;2022-07-18T03:24:18;101577.50;;;13.89
53667;BMP280;39568;51.026;5.468;2022-07-18T03:26:44;101579.47;;;13.89
53667;BMP280;39568;51.026;5.468;2022-07-18T03:29:11;101578.69;;;13.77
53667;BMP280;39568;51.026;5.468;2022-07-18T03:31:38;101583.53;;;13.68
53667;BMP280;39568;51.026;5.468;2022-07-18T03:34:08;101580.88;;;13.68
53667;BMP280;39568;51.026;5.468;2022-07-18T03:36:42;101583.06;;;13.64
53667;BMP280;39568;51.026;5.468;2022-07-18T03:39:12;101576.72;;;13.56
53667;BMP280;39568;51.026;5.468;2022-07-18T03:41:39;101567.97;;;13.55
53667;BMP280;39568;51.026;5.468;2022-07-18T03:44:06;101573.59;;;13.57
53667;BMP280;39568;51.026;5.468;2022-07-18T03:46:33;101570.91;;;13.57
53667;BMP280;39568;51.026;5.468;2022-07-18T03:48:59;101566.03;;;13.56
53667;BMP280;39568;51.026;5.468;2022-07-18T03:51:26;101575.00;;;13.53
53667;BMP280;39568;51.026;5.468;2022-07-18T03:53:54;101571.38;;;13.56
53667;BMP280;39568;51.026;5.468;2022-07-18T03:56:21;101571.13;;;13.59
53667;BMP280;39568;51.026;5.468;2022-07-18T03:58:48;101566.53;;;13.65
53667;BMP280;39568;51.026;5.468;2022-07-18T04:01:15;101570.44;;;13.75
53667;BMP280;39568;51.026;5.468;2022-07-18T04:03:42;101565.06;;;13.86
53667;BMP280;39568;51.026;5.468;2022-07-18T04:06:09;101574.81;;;14.00
53667;BMP280;39568;51.026;5.468;2022-07-18T04:08:40;101575.03;;;14.08
53667;BMP280;39568;51.026;5.468;2022-07-18T04:11:12;101565.31;;;14.16
53667;BMP280;39568;51.026;5.468;2022-07-18T04:13:40;101569.44;;;14.17
53667;BMP280;39568;51.026;5.468;2022-07-18T04:16:07;101563.13;;;14.20
53667;BMP280;39568;51.026;5.468;2022-07-18T04:18:34;101562.38;;;14.25
53667;BMP280;39568;51.026;5.468;2022-07-18T04:21:00;101559.44;;;14.34
53667;BMP280;39568;51.026;5.468;2022-07-18T04:23:27;101565.25;;;14.38
53667;BMP280;39568;51.026;5.468;2022-07-18T04:25:56;101570.84;;;14.46
53667;BMP280;39568;51.026;5.468;2022-07-18T04:28:25;101568.13;;;14.57
53667;BMP280;39568;51.026;5.468;2022-07-18T04:30:51;101557.91;;;14.66
53667;BMP280;39568;51.026;5.468;2022-07-18T04:33:18;101570.03;;;14.79
53667;BMP280;39568;51.026;5.468;2022-07-18T04:35:45;101567.31;;;14.90
53667;BMP280;39568;51.026;5.468;2022-07-18T04:38:18;101562.34;;;15.05
53667;BMP280;39568;51.026;5.468;2022-07-18T04:40:45;101559.59;;;15.16
53667;BMP280;39568;51.026;5.468;2022-07-18T04:43:12;101564.16;;;15.26
53667;BMP280;39568;51.026;5.468;2022-07-18T04:45:40;101565.09;;;15.34
53667;BMP280;39568;51.026;5.468;2022-07-18T04:48:07;101564.78;;;15.43
53667;BMP280;39568;51.026;5.468;2022-07-18T04:50:34;101567.41;;;15.55
53667;BMP280;39568;51.026;5.468;2022-07-18T04:53:01;101557.56;;;15.63
53667;BMP280;39568;51.026;5.468;2022-07-18T04:55:28;101557.47;;;15.74
53667;BMP280;39568;51.026;5.468;2022-07-18T04:57:57;101555.50;;;15.80
53667;BMP280;39568;51.026;5.468;2022-07-18T05:00:26;101553.38;;;15.97
53667;BMP280;39568;51.026;5.468;2022-07-18T05:02:59;101544.50;;;16.07
53667;BMP280;39568;51.026;5.468;2022-07-18T05:05:27;101546.28;;;16.24
53667;BMP280;39568;51.026;5.468;2022-07-18T05:07:54;101541.22;;;16.39
53667;BMP280;39568;51.026;5.468;2022-07-18T05:10:22;101542.31;;;16.49
53667;BMP280;39568;51.026;5.468;2022-07-18T05:12:51;101537.84;;;16.57
53667;BMP280;39568;51.026;5.468;2022-07-18T05:15:21;101541.34;;;16.70
53667;BMP280;39568;51.026;5.468;2022-07-18T05:17:48;101544.59;;;16.82
53667;BMP280;39568;51.026;5.468;2022-07-18T05:20:24;101540.94;;;16.98
53667;BMP280;39568;51.026;5.468;2022-07-18T05:22:51;101542.47;;;17.12
53667;BMP280;39568;51.026;5.468;2022-07-18T05:25:20;101534.13;;;17.29
53667;BMP280;39568;51.026;5.468;2022-07-18T05:27:48;101540.06;;;17.40
53667;BMP280;39568;51.026;5.468;2022-07-18T05:30:15;101548.03;;;17.46
53667;BMP280;39568;51.026;5.468;2022-07-18T05:32:42;101550.13;;;17.53
53667;BMP280;39568;51.026;5.468;2022-07-18T05:35:10;101557.09;;;17.61
53667;BMP280;39568;51.026;5.468;2022-07-18T05:37:40;101549.09;;;17.69
53667;BMP280;39568;51.026;5.468;2022-07-18T05:40:09;101550.91;;;17.80
53667;BMP280;39568;51.026;5.468;2022-07-18T05:42:36;101558.06;;;17.90
53667;BMP280;39568;51.026;5.468;2022-07-18T05:45:04;101558.06;;;18.03
53667;BMP280;39568;51.026;5.468;2022-07-18T05:47:31;101554.19;;;18.25
53667;BMP280;39568;51.026;5.468;2022-07-18T05:49:58;101545.47;;;18.45
53667;BMP280;39568;51.026;5.468;2022-07-18T05:52:24;101543.94;;;18.70
53667;BMP280;39568;51.026;5.468;2022-07-18T05:54:53;101551.34;;;18.90
53667;BMP280;39568;51.026;5.468;2022-07-18T05:57:19;101545.03;;;19.08
53667;BMP280;39568;51.026;5.468;2022-07-18T05:59:46;101546.31;;;19.28
53667;BMP280;39568;51.026;5.468;2022-07-18T06:02:13;101549.09;;;19.43
53667;BMP280;39568;51.026;5.468;2022-07-18T06:04:40;101551.91;;;19.58
53667;BMP280;39568;51.026;5.468;2022-07-18T06:07:07;101553.41;;;19.67
53667;BMP280;39568;51.026;5.468;2022-07-18T06:09:34;101559.22;;;19.78
53667;BMP280;39568;51.026;5.468;2022-07-18T06:12:04;101556.78;;;19.95
53667;BMP280;39568;51.026;5.468;2022-07-18T06:14:32;101556.47;;;20.06
53667;BMP280;39568;51.026;5.468;2022-07-18T06:17:02;101556.22;;;20.25
53667;BMP280;39568;51.026;5.468;2022-07-18T06:19:29;101549.41;;;20.47
53667;BMP280;39568;51.026;5.468;2022-07-18T06:22:13;101548.75;;;20.69
53667;BMP280;39568;51.026;5.468;2022-07-18T06:24:44;101552.00;;;20.90
53667;BMP280;39568;51.026;5.468;2022-07-18T06:27:12;101551.66;;;21.09
53667;BMP280;39568;51.026;5.468;2022-07-18T06:29:39;101555.81;;;21.25
53667;BMP280;39568;51.026;5.468;2022-07-18T06:32:06;101549.13;;;21.41
53667;BMP280;39568;51.026;5.468;2022-07-18T06:34:32;101539.34;;;21.53
53667;BMP280;39568;51.026;5.468;2022-07-18T06:36:59;101538.75;;;21.69
53667;BMP280;39568;51.026;5.468;2022-07-18T06:39:26;101546.63;;;21.90
53667;BMP280;39568;51.026;5.468;2022-07-18T06:41:55;101547.13;;;22.04
53667;BMP280;39568;51.026;5.468;2022-07-18T06:44:24;101540.72;;;22.16
53667;BMP280;39568;51.026;5.468;2022-07-18T06:46:52;101543.13;;;22.37
53667;BMP280;39568;51.026;5.468;2022-07-18T06:49:20;101540.34;;;22.52
53667;BMP280;39568;51.026;5.468;2022-07-18T06:51:48;101544.22;;;22.66
53667;BMP280;39568;51.026;5.468;2022-07-18T06:54:19;101541.28;;;22.71
53667;BMP280;39568;51.026;5.468;2022-07-18T06:56:53;101550.25;;;22.81
53667;BMP280;39568;51.026;5.468;2022-07-18T06:59:19;101546.75;;;22.89
53667;BMP280;39568;51.026;5.468;2022-07-18T07:01:47;101548.66;;;22.96
53667;BMP280;39568;51.026;5.468;2022-07-18T07:04:16;101546.00;;;23.13
53667;BMP280;39568;51.026;5.468;2022-07-18T07:06:47;101543.28;;;23.30
53667;BMP280;39568;51.026;5.468;2022-07-18T07:09:13;101542.31;;;23.35
53667;BMP280;39568;51.026;5.468;2022-07-18T07:11:43;101544.56;;;23.46
53667;BMP280;39568;51.026;5.468;2022-07-18T07:14:13;101550.31;;;23.50
53667;BMP280;39568;51.026;5.468;2022-07-18T07:16:39;101543.91;;;23.72
53667;BMP280;39568;51.026;5.468;2022-07-18T07:19:08;101547.66;;;23.76
53667;BMP280;39568;51.026;5.468;2022-07-18T07:21:34;101546.22;;;24.02
53667;BMP280;39568;51.026;5.468;2022-07-18T07:24:01;101546.66;;;24.08
53667;BMP280;39568;51.026;5.468;2022-07-18T07:26:27;101542.75;;;24.28
53667;BMP280;39568;51.026;5.468;2022-07-18T07:28:54;101536.69;;;24.56
53667;BMP280;39568;51.026;5.468;2022-07-18T07:31:21;101540.28;;;24.49
53667;BMP280;39568;51.026;5.468;2022-07-18T07:33:47;101540.91;;;24.21
53667;BMP280;39568;51.026;5.468;2022-07-18T07:36:23;101539.69;;;24.41
53667;BMP280;39568;51.026;5.468;2022-07-18T07:38:50;101536.88;;;24.58
53667;BMP280;39568;51.026;5.468;2022-07-18T07:41:16;101536.34;;;24.69
53667;BMP280;39568;51.026;5.468;2022-07-18T07:43:43;101537.34;;;24.74
53667;BMP280;39568;51.026;5.468;2022-07-18T07:46:14;101523.16;;;24.95
53667;BMP280;39568;51.026;5.468;2022-07-18T07:48:41;101526.31;;;24.91
53667;BMP280;39568;51.026;5.468;2022-07-18T07:51:09;101524.78;;;25.07
53667;BMP280;39568;51.026;5.468;2022-07-18T07:53:38;101514.88;;;25.31
53667;BMP280;39568;51.026;5.468;2022-07-18T07:56:09;101520.59;;;25.44
53667;BMP280;39568;51.026;5.468;2022-07-18T07:58:50;101522.56;;;25.53
53667;BMP280;39568;51.026;5.468;2022-07-18T08:01:16;101531.75;;;25.58
53667;BMP280;39568;51.026;5.468;2022-07-18T08:03:44;101527.75;;;25.49
53667;BMP280;39568;51.026;5.468;2022-07-18T08:06:13;101521.41;;;25.66
53667;BMP280;39568;51.026;5.468;2022-07-18T08:08:42;101516.97;;;25.70
53667;BMP280;39568;51.026;5.468;2022-07-18T08:11:09;101524.81;;;25.76
53667;BMP280;39568;51.026;5.468;2022-07-18T08:13:36;101524.22;;;25.87
53667;BMP280;39568;51.026;5.468;2022-07-18T08:16:05;101520.38;;;25.71
53667;BMP280;39568;51.026;5.468;2022-07-18T08:18:35;101520.09;;;26.07
53667;BMP280;39568;51.026;5.468;2022-07-18T08:21:05;101513.94;;;26.37
53667;BMP280;39568;51.026;5.468;2022-07-18T08:23:32;101524.13;;;26.37
53667;BMP280;39568;51.026;5.468;2022-07-18T08:26:00;101512.91;;;26.42
53667;BMP280;39568;51.026;5.468;2022-07-18T08:28:26;101512.38;;;26.55
53667;BMP280;39568;51.026;5.468;2022-07-18T08:30:53;101506.16;;;26.64
53667;BMP280;39568;51.026;5.468;2022-07-18T08:33:20;101513.91;;;26.68
53667;BMP280;39568;51.026;5.468;2022-07-18T08:35:47;101511.25;;;26.91
53667;BMP280;39568;51.026;5.468;2022-07-18T08:38:14;101507.88;;;27.02
53667;BMP280;39568;51.026;5.468;2022-07-18T08:40:41;101511.00;;;27.20
53667;BMP280;39568;51.026;5.468;2022-07-18T08:43:16;101515.16;;;27.21
53667;BMP280;39568;51.026;5.468;2022-07-18T08:45:44;101508.44;;;27.45
53667;BMP280;39568;51.026;5.468;2022-07-18T08:48:13;101511.91;;;27.57
53667;BMP280;39568;51.026;5.468;2022-07-18T08:50:42;101505.97;;;27.72
53667;BMP280;39568;51.026;5.468;2022-07-18T08:53:11;101507.28;;;27.94
53667;BMP280;39568;51.026;5.468;2022-07-18T08:55:38;101497.50;;;28.02
53667;BMP280;39568;51.026;5.468;2022-07-18T08:58:04;101509.41;;;28.18
53667;BMP280;39568;51.026;5.468;2022-07-18T09:00:33;101506.63;;;28.30
53667;BMP280;39568;51.026;5.468;2022-07-18T09:03:01;101505.06;;;28.39
53667;BMP280;39568;51.026;5.468;2022-07-18T09:05:32;101505.53;;;28.47
53667;BMP280;39568;51.026;5.468;2022-07-18T09:08:08;101509.31;;;28.53
53667;BMP280;39568;51.026;5.468;2022-07-18T09:10:41;101515.16;;;28.48
53667;BMP280;39568;51.026;5.468;2022-07-18T09:13:07;101507.91;;;28.52
53667;BMP280;39568;51.026;5.468;2022-07-18T09:15:57;101518.09;;;28.63
53667;BMP280;39568;51.026;5.468;2022-07-18T09:18:28;101501.13;;;28.78
53667;BMP280;39568;51.026;5.468;2022-07-18T09:20:59;101499.78;;;29.04
53667;BMP280;39568;51.026;5.468;2022-07-18T09:23:28;101513.13;;;29.10
53667;BMP280;39568;51.026;5.468;2022-07-18T09:26:00;101517.38;;;29.52
53667;BMP280;39568;51.026;5.468;2022-07-18T09:28:28;101503.94;;;29.85
53667;BMP280;39568;51.026;5.468;2022-07-18T09:30:57;101501.72;;;30.37
53667;BMP280;39568;51.026;5.468;2022-07-18T09:33:24;101504.91;;;30.61
53667;BMP280;39568;51.026;5.468;2022-07-18T09:35:52;101511.97;;;31.26
53667;BMP280;39568;51.026;5.468;2022-07-18T09:38:29;101495.44;;;31.57
53667;BMP280;39568;51.026;5.468;2022-07-18T09:40:56;101505.06;;;32.07
53667;BMP280;39568;51.026;5.468;2022-07-18T09:43:24;101505.63;;;32.38
53667;BMP280;39568;51.026;5.468;2022-07-18T09:45:54;101508.69;;;32.84
53667;BMP280;39568;51.026;5.468;2022-07-18T09:48:23;101507.16;;;32.61
53667;BMP280;39568;51.026;5.468;2022-07-18T09:50:52;101500.34;;;32.82
53667;BMP280;39568;51.026;5.468;2022-07-18T09:53:21;101502.34;;;32.62
53667;BMP280;39568;51.026;5.468;2022-07-18T09:55:52;101502.78;;;32.91
53667;BMP280;39568;51.026;5.468;2022-07-18T09:58:20;101509.50;;;33.45
53667;BMP280;39568;51.026;5.468;2022-07-18T10:00:50;101495.84;;;33.10
53667;BMP280;39568;51.026;5.468;2022-07-18T10:03:26;101511.69;;;33.29
53667;BMP280;39568;51.026;5.468;2022-07-18T10:05:54;101509.81;;;34.20
53667;BMP280;39568;51.026;5.468;2022-07-18T10:08:23;101505.06;;;34.22
53667;BMP280;39568;51.026;5.468;2022-07-18T10:10:51;101507.94;;;34.26
53667;BMP280;39568;51.026;5.468;2022-07-18T10:13:22;101505.03;;;34.93
53667;BMP280;39568;51.026;5.468;2022-07-18T10:15:53;101508.72;;;34.52
53667;BMP280;39568;51.026;5.468;2022-07-18T10:18:22;101500.56;;;35.35
53667;BMP280;39568;51.026;5.468;2022-07-18T10:20:53;101495.69;;;35.33
53667;BMP280;39568;51.026;5.468;2022-07-18T10:23:25;101501.13;;;34.29
53667;BMP280;39568;51.026;5.468;2022-07-18T10:26:13;101496.06;;;35.47
53667;BMP280;39568;51.026;5.468;2022-07-18T10:29:17;101505.78;;;33.79
53667;BMP280;39568;51.026;5.468;2022-07-18T10:32:08;101501.69;;;35.51
53667;BMP280;39568;51.026;5.468;2022-07-18T10:34:36;101496.25;;;34.06
53667;BMP280;39568;51.026;5.468;2022-07-18T10:37:10;101500.09;;;33.95
53667;BMP280;39568;51.026;5.468;2022-07-18T10:39:38;101504.22;;;34.65
53667;BMP280;39568;51.026;5.468;2022-07-18T10:42:23;101500.78;;;34.64
53667;BMP280;39568;51.026;5.468;2022-07-18T10:44:56;101492.78;;;35.27
53667;BMP280;39568;51.026;5.468;2022-07-18T10:47:28;101491.50;;;35.89
53667;BMP280;39568;51.026;5.468;2022-07-18T10:50:08;101489.91;;;35.80
53667;BMP280;39568;51.026;5.468;2022-07-18T10:53:01;101492.91;;;35.33
53667;BMP280;39568;51.026;5.468;2022-07-18T10:55:32;101478.84;;;36.48
53667;BMP280;39568;51.026;5.468;2022-07-18T10:58:15;101483.19;;;35.89
53667;BMP280;39568;51.026;5.468;2022-07-18T11:00:46;101474.84;;;36.92
53667;BMP280;39568;51.026;5.468;2022-07-18T11:03:18;101475.56;;;37.36
53667;BMP280;39568;51.026;5.468;2022-07-18T11:05:53;101491.44;;;36.53
53667;BMP280;39568;51.026;5.468;2022-07-18T11:08:31;101479.50;;;37.21
53667;BMP280;39568;51.026;5.468;2022-07-18T11:11:10;101477.28;;;36.74
53667;BMP280;39568;51.026;5.468;2022-07-18T11:13:39;101476.16;;;36.87
53667;BMP280;39568;51.026;5.468;2022-07-18T11:16:09;101476.84;;;38.32
53667;BMP280;39568;51.026;5.468;2022-07-18T11:21:33;101466.63;;;37.89
53667;BMP280;39568;51.026;5.468;2022-07-18T11:24:03;101466.69;;;36.63
53667;BMP280;39568;51.026;5.468;2022-07-18T11:26:32;101469.72;;;36.05
53667;BMP280;39568;51.026;5.468;2022-07-18T11:29:00;101466.47;;;36.88
53667;BMP280;39568;51.026;5.468;2022-07-18T11:31:28;101461.66;;;39.21
53667;BMP280;39568;51.026;5.468;2022-07-18T11:33:55;101464.19;;;38.87
53667;BMP280;39568;51.026;5.468;2022-07-18T11:36:28;101450.22;;;37.60
53667;BMP280;39568;51.026;5.468;2022-07-18T11:38:57;101450.78;;;37.03
53667;BMP280;39568;51.026;5.468;2022-07-18T11:41:26;101443.50;;;37.73
53667;BMP280;39568;51.026;5.468;2022-07-18T11:43:54;101461.28;;;37.54
53667;BMP280;39568;51.026;5.468;2022-07-18T11:46:22;101457.13;;;38.74
53667;BMP280;39568;51.026;5.468;2022-07-18T11:48:57;101446.53;;;39.50
53667;BMP280;39568;51.026;5.468;2022-07-18T11:51:32;101430.72;;;40.11
53667;BMP280;39568;51.026;5.468;2022-07-18T11:53:59;101442.47;;;39.79
53667;BMP280;39568;51.026;5.468;2022-07-18T11:56:27;101446.91;;;39.03
53667;BMP280;39568;51.026;5.468;2022-07-18T11:58:56;101440.84;;;39.28
53667;BMP280;39568;51.026;5.468;2022-07-18T12:01:30;101425.19;;;40.31
53667;BMP280;39568;51.026;5.468;2022-07-18T12:03:57;101436.34;;;40.71
53667;BMP280;39568;51.026;5.468;2022-07-18T12:06:37;101425.09;;;39.87
53667;BMP280;39568;51.026;5.468;2022-07-18T12:09:04;101439.69;;;38.02
53667;BMP280;39568;51.026;5.468;2022-07-18T12:11:34;101426.66;;;37.61
53667;BMP280;39568;51.026;5.468;2022-07-18T12:14:02;101431.53;;;38.92
53667;BMP280;39568;51.026;5.468;2022-07-18T12:16:33;101418.84;;;39.90
53667;BMP280;39568;51.026;5.468;2022-07-18T12:19:02;101416.84;;;40.53
53667;BMP280;39568;51.026;5.468;2022-07-18T12:21:54;101413.25;;;41.18
53667;BMP280;39568;51.026;5.468;2022-07-18T12:24:25;101424.00;;;39.12
53667;BMP280;39568;51.026;5.468;2022-07-18T12:27:14;101416.97;;;38.97
53667;BMP280;39568;51.026;5.468;2022-07-18T12:29:54;101416.97;;;39.03
53667;BMP280;39568;51.026;5.468;2022-07-18T12:32:23;101416.94;;;38.95
53667;BMP280;39568;51.026;5.468;2022-07-18T12:34:56;101403.56;;;40.67
53667;BMP280;39568;51.026;5.468;2022-07-18T12:37:24;101401.47;;;40.16
53667;BMP280;39568;51.026;5.468;2022-07-18T12:39:56;101413.09;;;39.48
53667;BMP280;39568;51.026;5.468;2022-07-18T12:42:32;101411.31;;;38.87
53667;BMP280;39568;51.026;5.468;2022-07-18T12:44:59;101417.47;;;38.75
53667;BMP280;39568;51.026;5.468;2022-07-18T12:47:26;101417.22;;;39.33
53667;BMP280;39568;51.026;5.468;2022-07-18T12:49:53;101410.53;;;40.64
53667;BMP280;39568;51.026;5.468;2022-07-18T12:52:21;101399.00;;;41.78
53667;BMP280;39568;51.026;5.468;2022-07-18T12:54:48;101395.53;;;42.60
53667;BMP280;39568;51.026;5.468;2022-07-18T12:57:16;101388.72;;;42.41
53667;BMP280;39568;51.026;5.468;2022-07-18T12:59:45;101397.91;;;41.19
53667;BMP280;39568;51.026;5.468;2022-07-18T13:02:12;101387.53;;;40.54
53667;BMP280;39568;51.026;5.468;2022-07-18T13:04:39;101385.41;;;40.00
53667;BMP280;39568;51.026;5.468;2022-07-18T13:07:06;101390.97;;;38.64
53667;BMP280;39568;51.026;5.468;2022-07-18T13:09:35;101391.06;;;38.01
53667;BMP280;39568;51.026;5.468;2022-07-18T13:12:05;101381.47;;;38.94
53667;BMP280;39568;51.026;5.468;2022-07-18T13:14:33;101381.69;;;39.38
53667;BMP280;39568;51.026;5.468;2022-07-18T13:17:01;101376.25;;;38.52
53667;BMP280;39568;51.026;5.468;2022-07-18T13:19:28;101376.81;;;39.36
53667;BMP280;39568;51.026;5.468;2022-07-18T13:21:57;101370.38;;;39.02
53667;BMP280;39568;51.026;5.468;2022-07-18T13:24:24;101378.88;;;39.28
53667;BMP280;39568;51.026;5.468;2022-07-18T13:26:51;101366.59;;;39.93
53667;BMP280;39568;51.026;5.468;2022-07-18T13:29:17;101360.25;;;39.72
53667;BMP280;39568;51.026;5.468;2022-07-18T13:31:48;101367.22;;;39.71
53667;BMP280;39568;51.026;5.468;2022-07-18T13:34:21;101358.94;;;40.09
53667;BMP280;39568;51.026;5.468;2022-07-18T13:36:49;101360.31;;;40.50
53667;BMP280;39568;51.026;5.468;2022-07-18T13:39:16;101364.50;;;40.69
53667;BMP280;39568;51.026;5.468;2022-07-18T13:41:43;101357.31;;;41.34
53667;BMP280;39568;51.026;5.468;2022-07-18T13:44:10;101360.75;;;42.41
53667;BMP280;39568;51.026;5.468;2022-07-18T13:46:37;101357.75;;;42.63
53667;BMP280;39568;51.026;5.468;2022-07-18T13:49:06;101361.72;;;40.71
53667;BMP280;39568;51.026;5.468;2022-07-18T13:51:34;101357.81;;;41.75
53667;BMP280;39568;51.026;5.468;2022-07-18T13:54:02;101357.28;;;41.44
53667;BMP280;39568;51.026;5.468;2022-07-18T13:56:29;101345.84;;;41.86
53667;BMP280;39568;51.026;5.468;2022-07-18T13:58:56;101349.09;;;40.94
53667;BMP280;39568;51.026;5.468;2022-07-18T14:01:23;101342.91;;;40.16
53667;BMP280;39568;51.026;5.468;2022-07-18T14:03:50;101349.88;;;39.99
53667;BMP280;39568;51.026;5.468;2022-07-18T14:06:16;101343.53;;;39.64
53667;BMP280;39568;51.026;5.468;2022-07-18T14:08:44;101339.25;;;39.33
53667;BMP280;39568;51.026;5.468;2022-07-18T14:11:11;101336.38;;;39.19